Wilson Lahn — 8PUO — position and weather

sailwx.info

Track history (hours):
 
Tides and Currents Weather Stations Pressure Air Temp Water Temp Dewpoint Dewpoint Depression Visibility Wind Speed Wind Dir Waves Ship Positions

Wilson Lahn

Last reported at 2014-Nov-28 09:23 UTC. Time now 2014-Nov-28 12:16 UTC.
Position N 51°14' E 003°13'.

Length 83 m; draft 3.7 m.

Type: Cargo ship. MMSI: 314259000.

Date/timePositionNaut miles runAvg speedWind from/ knotsBaromVisibWave heightAir tempDewpointWater temp
2014-Nov-28 09:23N 51°14' E 003°13'0 0.0
2014-Nov-28 08:32N 51°14' E 003°13'0 0.0
2014-Nov-28 05:14N 51°14' E 003°13'0 0.0
2014-Nov-28 04:17N 51°14' E 003°13'0 0.2
2014-Nov-28 02:33N 51°14' E 003°13'6 5.9
2014-Nov-28 01:33N 51°20' E 003°13'3 1.6
2014-Nov-27 23:30N 51°23' E 003°14'1112.2
2014-Nov-27 22:33N 51°26' E 003°32'10 9.9
2014-Nov-27 21:33N 51°22' E 003°46'1010.2
2014-Nov-27 20:33N 51°25' E 004°02'9 9.4
2014-Nov-27 19:33N 51°21' E 004°15'9 8.8
2014-Nov-27 18:33N 51°14' E 004°24'8 7.8
2014-Nov-27 17:34N 51°07' E 004°18'0 0.0
2014-Nov-26 22:33N 51°07' E 004°18'5 4.8
2014-Nov-26 21:34N 51°12' E 004°20'4 3.8
2014-Nov-26 20:34N 51°15' E 004°18'7 7.3
2014-Nov-26 19:33N 51°22' E 004°13'7 6.7
2014-Nov-26 18:33N 51°24' E 004°03'7 6.8
2014-Nov-26 17:33N 51°21' E 003°54'9 9.4
2014-Nov-26 16:33N 51°25' E 003°40'6 5.9
2014-Nov-26 15:33N 51°27' E 003°31'7 7.3
2014-Nov-26 14:32N 51°34' E 003°25'9 8.6
2014-Nov-26 13:32N 51°41' E 003°17'14710.2
2014-Nov-25 23:05N 53°57' E 004°47'24310.6
2014-Nov-25 00:13N 58°00' E 005°08'710.2
2014-Nov-24 23:33N 58°07' E 005°05'  
2014-Nov-22 12:21N 66°25' E 011°43'7 8.3
2014-Nov-22 11:32N 66°31' E 011°50'11 8.8
2014-Nov-22 10:18N 66°40' E 012°05'8110.4
2014-Nov-22 02:30N 67°45' E 014°11'  
2014-Nov-19 16:32N 67°30' E 014°21'9 9.5
2014-Nov-19 15:33N 67°20' E 014°21'1211.9
2014-Nov-19 14:34N 67°11' E 014°04'1511.8
2014-Nov-19 13:19N 66°59' E 013°41'11 0.7
2014-Nov-18 21:27N 67°07' E 013°60'1011.1
2014-Nov-18 20:34N 67°16' E 014°12'1111.2
2014-Nov-18 19:34N 67°25' E 014°28'1410.8
2014-Nov-18 18:14N 67°35' E 014°55'15 9.2
2014-Nov-18 16:34N 67°27' E 015°30'4 3.7
2014-Nov-18 15:30N 67°24' E 015°33'0 0.0
2014-Nov-18 14:30N 67°24' E 015°33'0 0.0
2014-Nov-18 13:27N 67°24' E 015°33'0 0.0
2014-Nov-18 12:33N 67°24' E 015°33'0 0.0
2014-Nov-18 11:33N 67°24' E 015°33'0 0.0
2014-Nov-18 10:33N 67°24' E 015°33'0 0.0
2014-Nov-18 09:33N 67°24' E 015°33'  
Track history (hours):
 
Tides and Currents Weather Stations Pressure Air Temp Water Temp Dewpoint Dewpoint Depression Visibility Wind Speed Wind Dir Waves Ship Positions

Wilson Lahn

Last reported at 2014-Nov-28 09:23 UTC. Time now 2014-Nov-28 12:16 UTC.
Position N 51°14' E 003°13'.

Length 83 m; draft 3.7 m.

Type: Cargo ship. MMSI: 314259000.

Date/timePositionNaut miles runAvg speedWind from/ knotsBaromVisibWave heightAir tempDewpointWater temp
2014-Nov-28 09:23N 51°14' E 003°13'0 0.0
2014-Nov-28 08:32N 51°14' E 003°13'0 0.0
2014-Nov-28 05:14N 51°14' E 003°13'0 0.0
2014-Nov-28 04:17N 51°14' E 003°13'0 0.2
2014-Nov-28 02:33N 51°14' E 003°13'6 5.9
2014-Nov-28 01:33N 51°20' E 003°13'3 1.6
2014-Nov-27 23:30N 51°23' E 003°14'1112.2
2014-Nov-27 22:33N 51°26' E 003°32'10 9.9
2014-Nov-27 21:33N 51°22' E 003°46'1010.2
2014-Nov-27 20:33N 51°25' E 004°02'9 9.4
2014-Nov-27 19:33N 51°21' E 004°15'9 8.8
2014-Nov-27 18:33N 51°14' E 004°24'8 7.8
2014-Nov-27 17:34N 51°07' E 004°18'0 0.0
2014-Nov-26 22:33N 51°07' E 004°18'5 4.8
2014-Nov-26 21:34N 51°12' E 004°20'4 3.8
2014-Nov-26 20:34N 51°15' E 004°18'7 7.3
2014-Nov-26 19:33N 51°22' E 004°13'7 6.7
2014-Nov-26 18:33N 51°24' E 004°03'7 6.8
2014-Nov-26 17:33N 51°21' E 003°54'9 9.4
2014-Nov-26 16:33N 51°25' E 003°40'6 5.9
2014-Nov-26 15:33N 51°27' E 003°31'7 7.3
2014-Nov-26 14:32N 51°34' E 003°25'9 8.6
2014-Nov-26 13:32N 51°41' E 003°17'14710.2
2014-Nov-25 23:05N 53°57' E 004°47'24310.6
2014-Nov-25 00:13N 58°00' E 005°08'710.2
2014-Nov-24 23:33N 58°07' E 005°05'  
2014-Nov-22 12:21N 66°25' E 011°43'7 8.3
2014-Nov-22 11:32N 66°31' E 011°50'11 8.8
2014-Nov-22 10:18N 66°40' E 012°05'8110.4
2014-Nov-22 02:30N 67°45' E 014°11'  
2014-Nov-19 16:32N 67°30' E 014°21'9 9.5
2014-Nov-19 15:33N 67°20' E 014°21'1211.9
2014-Nov-19 14:34N 67°11' E 014°04'1511.8
2014-Nov-19 13:19N 66°59' E 013°41'11 0.7
2014-Nov-18 21:27N 67°07' E 013°60'1011.1
2014-Nov-18 20:34N 67°16' E 014°12'1111.2
2014-Nov-18 19:34N 67°25' E 014°28'1410.8
2014-Nov-18 18:14N 67°35' E 014°55'15 9.2
2014-Nov-18 16:34N 67°27' E 015°30'4 3.7
2014-Nov-18 15:30N 67°24' E 015°33'0 0.0
2014-Nov-18 14:30N 67°24' E 015°33'0 0.0
2014-Nov-18 13:27N 67°24' E 015°33'0 0.0
2014-Nov-18 12:33N 67°24' E 015°33'0 0.0
2014-Nov-18 11:33N 67°24' E 015°33'0 0.0
2014-Nov-18 10:33N 67°24' E 015°33'0 0.0
2014-Nov-18 09:33N 67°24' E 015°33'  

Dump ship's entire track history